Aviation Digital Data Service (ADDS)

Output produced by METARs form (0327 UTC 19 August 2019)
found at http://www.aviationweather.gov/metar/data/
 
Forecast for: ETNL (LAAGE , DE)
Text: TAF ETNL 182200Z 1823/1911 25008KT 8000 NSW SCT008 BKN020
Forecast period: 2300 UTC 18 August 2019 to 1100 UTC 19 August 2019
Forecast type: FROM: standard forecast or significant change
Winds: from the WSW (250 degrees) at 9 MPH (8 knots; 4.1 m/s)
Visibility: 5 miles (8 km)
Ceiling: 2000 feet AGL
Clouds: scattered clouds at 800 feet AGL
broken clouds at 2000 feet AGL
Weather: NSW  (no significant weather)
Text: TEMPO 1901/1907 20005KT 3000 BR BKN005 BKN040 BY ETGL
Forecast period: 0100 to 0700 UTC 19 August 2019
Forecast type: TEMPORARY: The following changes expected for less than half the time period
Winds: from the SSW (200 degrees) at 6 MPH (5 knots; 2.6 m/s)
Visibility: 1.86 miles (2.99 km)
Ceiling: 500 feet AGL
Clouds: broken clouds at 500 feet AGL
broken clouds at 4000 feet AGL
Weather: BR  (mist)